sensor_id;sensor_type;location;lat;lon;timestamp;temperature;humidity
57843;DHT22;43673;51.058;3.734;2023-03-01T00:01:31;3.50;99.90
57843;DHT22;43673;51.058;3.734;2023-03-01T00:03:58;3.50;99.90
57843;DHT22;43673;51.058;3.734;2023-03-01T00:06:24;3.50;99.90
57843;DHT22;43673;51.058;3.734;2023-03-01T00:08:50;3.40;99.90
57843;DHT22;43673;51.058;3.734;2023-03-01T00:11:19;3.40;99.90
57843;DHT22;43673;51.058;3.734;2023-03-01T00:13:46;3.40;99.90
57843;DHT22;43673;51.058;3.734;2023-03-01T00:16:20;3.60;99.90
57843;DHT22;43673;51.058;3.734;2023-03-01T00:18:46;3.40;99.90
57843;DHT22;43673;51.058;3.734;2023-03-01T00:21:13;3.40;99.90
57843;DHT22;43673;51.058;3.734;2023-03-01T00:23:39;3.40;99.90
57843;DHT22;43673;51.058;3.734;2023-03-01T00:26:13;3.60;99.90
57843;DHT22;43673;51.058;3.734;2023-03-01T00:28:39;3.40;99.90
57843;DHT22;43673;51.058;3.734;2023-03-01T00:31:10;3.40;99.90
57843;DHT22;43673;51.058;3.734;2023-03-01T00:33:36;3.40;99.90
57843;DHT22;43673;51.058;3.734;2023-03-01T00:36:03;3.40;99.90
57843;DHT22;43673;51.058;3.734;2023-03-01T00:38:29;3.50;99.90
57843;DHT22;43673;51.058;3.734;2023-03-01T00:40:55;3.40;99.90
57843;DHT22;43673;51.058;3.734;2023-03-01T00:43:21;3.30;99.90
57843;DHT22;43673;51.058;3.734;2023-03-01T00:45:46;3.30;99.90
57843;DHT22;43673;51.058;3.734;2023-03-01T00:48:12;3.40;99.90
57843;DHT22;43673;51.058;3.734;2023-03-01T00:50:38;3.40;99.90
57843;DHT22;43673;51.058;3.734;2023-03-01T00:53:04;3.30;99.90
57843;DHT22;43673;51.058;3.734;2023-03-01T00:55:31;3.30;99.90
57843;DHT22;43673;51.058;3.734;2023-03-01T00:57:56;3.40;99.90
57843;DHT22;43673;51.058;3.734;2023-03-01T01:00:22;3.20;99.90
57843;DHT22;43673;51.058;3.734;2023-03-01T01:02:48;3.30;99.90
57843;DHT22;43673;51.058;3.734;2023-03-01T01:05:14;3.30;99.90
57843;DHT22;43673;51.058;3.734;2023-03-01T01:07:40;3.30;99.90
57843;DHT22;43673;51.058;3.734;2023-03-01T01:10:06;3.20;99.90
57843;DHT22;43673;51.058;3.734;2023-03-01T01:12:33;3.30;99.90
57843;DHT22;43673;51.058;3.734;2023-03-01T01:15:00;3.20;99.90
57843;DHT22;43673;51.058;3.734;2023-03-01T01:17:26;3.30;99.90
57843;DHT22;43673;51.058;3.734;2023-03-01T01:19:52;3.20;99.90
57843;DHT22;43673;51.058;3.734;2023-03-01T01:22:17;3.10;99.90
57843;DHT22;43673;51.058;3.734;2023-03-01T01:24:43;3.00;99.90
57843;DHT22;43673;51.058;3.734;2023-03-01T01:27:09;3.00;99.90
57843;DHT22;43673;51.058;3.734;2023-03-01T01:29:34;3.00;99.90
57843;DHT22;43673;51.058;3.734;2023-03-01T01:32:00;2.90;99.90
57843;DHT22;43673;51.058;3.734;2023-03-01T01:34:26;3.10;99.90
57843;DHT22;43673;51.058;3.734;2023-03-01T01:36:52;2.80;99.90
57843;DHT22;43673;51.058;3.734;2023-03-01T01:39:22;2.80;99.90
57843;DHT22;43673;51.058;3.734;2023-03-01T01:41:48;2.80;99.90
57843;DHT22;43673;51.058;3.734;2023-03-01T01:44:23;2.80;99.90
57843;DHT22;43673;51.058;3.734;2023-03-01T01:46:53;2.80;99.90
57843;DHT22;43673;51.058;3.734;2023-03-01T01:49:36;2.80;99.90
57843;DHT22;43673;51.058;3.734;2023-03-01T01:52:30;2.80;99.90
57843;DHT22;43673;51.058;3.734;2023-03-01T01:55:14;2.80;99.90
57843;DHT22;43673;51.058;3.734;2023-03-01T01:58:03;2.70;99.90
57843;DHT22;43673;51.058;3.734;2023-03-01T02:00:30;2.80;99.90
57843;DHT22;43673;51.058;3.734;2023-03-01T02:03:02;2.70;99.90
57843;DHT22;43673;51.058;3.734;2023-03-01T02:05:56;2.60;99.90
57843;DHT22;43673;51.058;3.734;2023-03-01T02:08:26;2.70;99.90
57843;DHT22;43673;51.058;3.734;2023-03-01T02:10:53;2.70;99.90
57843;DHT22;43673;51.058;3.734;2023-03-01T02:13:20;2.70;99.90
57843;DHT22;43673;51.058;3.734;2023-03-01T02:15:45;2.70;99.90
57843;DHT22;43673;51.058;3.734;2023-03-01T02:18:15;2.70;99.90
57843;DHT22;43673;51.058;3.734;2023-03-01T02:23:31;2.60;99.90
57843;DHT22;43673;51.058;3.734;2023-03-01T02:28:51;2.60;99.90
57843;DHT22;43673;51.058;3.734;2023-03-01T02:31:19;2.50;99.90
57843;DHT22;43673;51.058;3.734;2023-03-01T02:34:05;2.60;99.90
57843;DHT22;43673;51.058;3.734;2023-03-01T02:36:38;2.30;99.90
57843;DHT22;43673;51.058;3.734;2023-03-01T02:39:07;2.40;99.90
57843;DHT22;43673;51.058;3.734;2023-03-01T02:41:42;2.40;99.90
57843;DHT22;43673;51.058;3.734;2023-03-01T02:44:08;2.40;99.90
57843;DHT22;43673;51.058;3.734;2023-03-01T02:46:42;2.40;99.90
57843;DHT22;43673;51.058;3.734;2023-03-01T02:49:29;2.50;99.90
57843;DHT22;43673;51.058;3.734;2023-03-01T02:55:11;2.40;99.90
57843;DHT22;43673;51.058;3.734;2023-03-01T02:57:42;2.40;99.90
57843;DHT22;43673;51.058;3.734;2023-03-01T03:00:12;2.40;99.90
57843;DHT22;43673;51.058;3.734;2023-03-01T03:02:45;2.30;99.90
57843;DHT22;43673;51.058;3.734;2023-03-01T03:05:16;2.40;99.90
57843;DHT22;43673;51.058;3.734;2023-03-01T03:07:44;2.30;99.90
57843;DHT22;43673;51.058;3.734;2023-03-01T03:10:22;2.30;99.90
57843;DHT22;43673;51.058;3.734;2023-03-01T03:12:53;2.30;99.90
57843;DHT22;43673;51.058;3.734;2023-03-01T03:15:19;2.40;99.90
57843;DHT22;43673;51.058;3.734;2023-03-01T03:17:49;2.30;99.90
57843;DHT22;43673;51.058;3.734;2023-03-01T03:20:18;2.40;99.90
57843;DHT22;43673;51.058;3.734;2023-03-01T03:22:46;2.30;99.90
57843;DHT22;43673;51.058;3.734;2023-03-01T03:25:13;2.50;99.90
57843;DHT22;43673;51.058;3.734;2023-03-01T03:27:41;2.40;99.90
57843;DHT22;43673;51.058;3.734;2023-03-01T03:30:11;2.40;99.90
57843;DHT22;43673;51.058;3.734;2023-03-01T03:32:42;2.40;99.90
57843;DHT22;43673;51.058;3.734;2023-03-01T03:35:22;2.40;99.90
57843;DHT22;43673;51.058;3.734;2023-03-01T03:37:50;2.40;99.90
57843;DHT22;43673;51.058;3.734;2023-03-01T03:40:54;2.40;99.90
57843;DHT22;43673;51.058;3.734;2023-03-01T03:43:26;2.40;99.90
57843;DHT22;43673;51.058;3.734;2023-03-01T03:45:52;2.60;99.90
57843;DHT22;43673;51.058;3.734;2023-03-01T03:48:19;2.30;99.90
57843;DHT22;43673;51.058;3.734;2023-03-01T03:50:54;2.40;99.90
57843;DHT22;43673;51.058;3.734;2023-03-01T03:53:22;2.30;99.90
57843;DHT22;43673;51.058;3.734;2023-03-01T03:55:48;2.40;99.90
57843;DHT22;43673;51.058;3.734;2023-03-01T03:58:15;2.30;99.90
57843;DHT22;43673;51.058;3.734;2023-03-01T04:00:44;2.20;99.90
57843;DHT22;43673;51.058;3.734;2023-03-01T04:03:11;2.20;99.90
57843;DHT22;43673;51.058;3.734;2023-03-01T04:05:38;2.20;99.90
57843;DHT22;43673;51.058;3.734;2023-03-01T04:08:05;2.10;99.90
57843;DHT22;43673;51.058;3.734;2023-03-01T04:10:39;2.20;99.90
57843;DHT22;43673;51.058;3.734;2023-03-01T04:13:06;2.30;99.90
57843;DHT22;43673;51.058;3.734;2023-03-01T04:15:33;2.20;99.90
57843;DHT22;43673;51.058;3.734;2023-03-01T04:17:59;2.20;99.90
57843;DHT22;43673;51.058;3.734;2023-03-01T04:20:28;2.20;99.90
57843;DHT22;43673;51.058;3.734;2023-03-01T04:22:59;2.10;99.90
57843;DHT22;43673;51.058;3.734;2023-03-01T04:25:25;2.10;99.90
57843;DHT22;43673;51.058;3.734;2023-03-01T04:27:50;2.10;99.90
57843;DHT22;43673;51.058;3.734;2023-03-01T04:30:16;2.00;99.90
57843;DHT22;43673;51.058;3.734;2023-03-01T04:32:43;2.00;99.90
57843;DHT22;43673;51.058;3.734;2023-03-01T04:35:09;2.20;99.90
57843;DHT22;43673;51.058;3.734;2023-03-01T04:37:34;2.10;99.90
57843;DHT22;43673;51.058;3.734;2023-03-01T04:40:02;2.00;99.90
57843;DHT22;43673;51.058;3.734;2023-03-01T04:42:59;2.10;99.90
57843;DHT22;43673;51.058;3.734;2023-03-01T04:45:24;1.90;99.90
57843;DHT22;43673;51.058;3.734;2023-03-01T04:47:50;1.90;99.90
57843;DHT22;43673;51.058;3.734;2023-03-01T04:50:18;1.90;99.90
57843;DHT22;43673;51.058;3.734;2023-03-01T04:52:46;1.90;99.90
57843;DHT22;43673;51.058;3.734;2023-03-01T04:55:13;1.90;99.90
57843;DHT22;43673;51.058;3.734;2023-03-01T04:57:39;1.80;99.90
57843;DHT22;43673;51.058;3.734;2023-03-01T05:00:12;1.80;99.90
57843;DHT22;43673;51.058;3.734;2023-03-01T05:02:54;1.80;99.90
57843;DHT22;43673;51.058;3.734;2023-03-01T05:05:28;1.90;99.90
57843;DHT22;43673;51.058;3.734;2023-03-01T05:07:59;1.70;99.90
57843;DHT22;43673;51.058;3.734;2023-03-01T05:10:27;1.80;99.90
57843;DHT22;43673;51.058;3.734;2023-03-01T05:12:54;1.80;99.90
57843;DHT22;43673;51.058;3.734;2023-03-01T05:15:23;1.70;99.90
57843;DHT22;43673;51.058;3.734;2023-03-01T05:17:55;1.80;99.90
57843;DHT22;43673;51.058;3.734;2023-03-01T05:20:25;1.60;99.90
57843;DHT22;43673;51.058;3.734;2023-03-01T05:22:52;1.70;99.90
57843;DHT22;43673;51.058;3.734;2023-03-01T05:25:22;1.70;99.90
57843;DHT22;43673;51.058;3.734;2023-03-01T05:27:47;1.70;99.90
57843;DHT22;43673;51.058;3.734;2023-03-01T05:30:14;1.80;99.90
57843;DHT22;43673;51.058;3.734;2023-03-01T05:32:42;1.60;99.90
57843;DHT22;43673;51.058;3.734;2023-03-01T05:35:12;1.60;99.90
57843;DHT22;43673;51.058;3.734;2023-03-01T05:37:43;1.60;99.90
57843;DHT22;43673;51.058;3.734;2023-03-01T05:40:14;1.70;99.90
57843;DHT22;43673;51.058;3.734;2023-03-01T05:42:54;1.60;99.90
57843;DHT22;43673;51.058;3.734;2023-03-01T05:45:23;1.60;99.90
57843;DHT22;43673;51.058;3.734;2023-03-01T05:47:49;1.60;99.90
57843;DHT22;43673;51.058;3.734;2023-03-01T05:50:19;1.60;99.90
57843;DHT22;43673;51.058;3.734;2023-03-01T05:52:50;1.60;99.90
57843;DHT22;43673;51.058;3.734;2023-03-01T05:55:20;1.50;99.90
57843;DHT22;43673;51.058;3.734;2023-03-01T05:57:47;1.60;99.90
57843;DHT22;43673;51.058;3.734;2023-03-01T06:00:14;1.60;99.90
57843;DHT22;43673;51.058;3.734;2023-03-01T06:02:40;1.50;99.90
57843;DHT22;43673;51.058;3.734;2023-03-01T06:05:08;1.60;99.90
57843;DHT22;43673;51.058;3.734;2023-03-01T06:07:34;1.40;99.90
57843;DHT22;43673;51.058;3.734;2023-03-01T06:10:01;1.40;99.90
57843;DHT22;43673;51.058;3.734;2023-03-01T06:12:33;1.30;99.90
57843;DHT22;43673;51.058;3.734;2023-03-01T06:14:59;1.20;99.90
57843;DHT22;43673;51.058;3.734;2023-03-01T06:17:25;1.40;99.90
57843;DHT22;43673;51.058;3.734;2023-03-01T06:19:50;1.20;99.90
57843;DHT22;43673;51.058;3.734;2023-03-01T06:22:16;1.20;99.90
57843;DHT22;43673;51.058;3.734;2023-03-01T06:24:42;1.30;99.90
57843;DHT22;43673;51.058;3.734;2023-03-01T06:27:07;1.20;99.90
57843;DHT22;43673;51.058;3.734;2023-03-01T06:29:33;1.30;99.90
57843;DHT22;43673;51.058;3.734;2023-03-01T06:31:59;1.30;99.90
57843;DHT22;43673;51.058;3.734;2023-03-01T06:34:25;1.40;99.90
57843;DHT22;43673;51.058;3.734;2023-03-01T06:36:50;1.40;99.90
57843;DHT22;43673;51.058;3.734;2023-03-01T06:39:16;1.40;99.90
57843;DHT22;43673;51.058;3.734;2023-03-01T06:41:43;1.50;99.90
57843;DHT22;43673;51.058;3.734;2023-03-01T06:44:09;1.50;99.90
57843;DHT22;43673;51.058;3.734;2023-03-01T06:46:35;1.50;99.90
57843;DHT22;43673;51.058;3.734;2023-03-01T06:49:00;1.60;99.90
57843;DHT22;43673;51.058;3.734;2023-03-01T06:51:26;1.70;99.90
57843;DHT22;43673;51.058;3.734;2023-03-01T06:53:52;1.70;99.90
57843;DHT22;43673;51.058;3.734;2023-03-01T07:04:01;2.60;99.90
57843;DHT22;43673;51.058;3.734;2023-03-01T07:06:29;2.60;99.90
57843;DHT22;43673;51.058;3.734;2023-03-01T07:08:56;2.60;99.90
57843;DHT22;43673;51.058;3.734;2023-03-01T07:11:22;2.70;99.90
57843;DHT22;43673;51.058;3.734;2023-03-01T07:13:49;2.80;99.90
57843;DHT22;43673;51.058;3.734;2023-03-01T07:16:15;2.50;99.90
57843;DHT22;43673;51.058;3.734;2023-03-01T07:18:41;2.50;99.90
57843;DHT22;43673;51.058;3.734;2023-03-01T07:21:08;2.60;99.90
57843;DHT22;43673;51.058;3.734;2023-03-01T07:23:35;2.60;99.90
57843;DHT22;43673;51.058;3.734;2023-03-01T07:26:00;2.50;99.90
57843;DHT22;43673;51.058;3.734;2023-03-01T07:28:27;2.50;99.90
57843;DHT22;43673;51.058;3.734;2023-03-01T07:30:53;2.50;99.90
57843;DHT22;43673;51.058;3.734;2023-03-01T07:33:22;2.70;99.90
57843;DHT22;43673;51.058;3.734;2023-03-01T07:35:48;2.50;99.90
57843;DHT22;43673;51.058;3.734;2023-03-01T07:38:14;2.70;99.90
57843;DHT22;43673;51.058;3.734;2023-03-01T07:40:39;2.70;99.90
57843;DHT22;43673;51.058;3.734;2023-03-01T07:43:05;2.60;99.90
57843;DHT22;43673;51.058;3.734;2023-03-01T07:45:33;2.60;99.90
57843;DHT22;43673;51.058;3.734;2023-03-01T07:47:59;2.60;99.90
57843;DHT22;43673;51.058;3.734;2023-03-01T07:50:25;2.60;99.90
57843;DHT22;43673;51.058;3.734;2023-03-01T07:52:51;2.60;99.90
57843;DHT22;43673;51.058;3.734;2023-03-01T07:55:17;2.70;99.90
57843;DHT22;43673;51.058;3.734;2023-03-01T07:57:42;2.80;99.90
57843;DHT22;43673;51.058;3.734;2023-03-01T08:00:10;2.90;99.90
57843;DHT22;43673;51.058;3.734;2023-03-01T08:02:37;3.00;99.90
57843;DHT22;43673;51.058;3.734;2023-03-01T08:05:03;3.10;99.90
57843;DHT22;43673;51.058;3.734;2023-03-01T08:07:29;3.60;99.90
57843;DHT22;43673;51.058;3.734;2023-03-01T08:09:54;4.40;99.90
57843;DHT22;43673;51.058;3.734;2023-03-01T08:12:20;5.10;99.90
57843;DHT22;43673;51.058;3.734;2023-03-01T08:14:46;5.70;99.90
57843;DHT22;43673;51.058;3.734;2023-03-01T08:17:14;6.50;99.90
57843;DHT22;43673;51.058;3.734;2023-03-01T08:19:40;7.00;99.90
57843;DHT22;43673;51.058;3.734;2023-03-01T08:22:05;7.20;99.90
57843;DHT22;43673;51.058;3.734;2023-03-01T08:24:31;7.70;99.90
57843;DHT22;43673;51.058;3.734;2023-03-01T08:26:57;8.20;99.90
57843;DHT22;43673;51.058;3.734;2023-03-01T08:29:22;8.60;99.90
57843;DHT22;43673;51.058;3.734;2023-03-01T08:31:50;8.90;98.40
57843;DHT22;43673;51.058;3.734;2023-03-01T08:34:17;9.00;97.00
57843;DHT22;43673;51.058;3.734;2023-03-01T08:36:45;8.90;96.70
57843;DHT22;43673;51.058;3.734;2023-03-01T08:39:13;9.00;96.00
57843;DHT22;43673;51.058;3.734;2023-03-01T08:41:39;8.80;95.90
57843;DHT22;43673;51.058;3.734;2023-03-01T08:44:06;8.90;96.20
57843;DHT22;43673;51.058;3.734;2023-03-01T08:46:34;9.10;95.20
57843;DHT22;43673;51.058;3.734;2023-03-01T08:49:04;9.20;94.80
57843;DHT22;43673;51.058;3.734;2023-03-01T08:51:31;9.00;94.00
57843;DHT22;43673;51.058;3.734;2023-03-01T08:54:12;9.20;95.10
57843;DHT22;43673;51.058;3.734;2023-03-01T08:56:37;9.50;94.30
57843;DHT22;43673;51.058;3.734;2023-03-01T08:59:03;9.60;93.40
57843;DHT22;43673;51.058;3.734;2023-03-01T09:01:29;9.50;93.30
57843;DHT22;43673;51.058;3.734;2023-03-01T09:03:55;9.60;93.40
57843;DHT22;43673;51.058;3.734;2023-03-01T09:06:21;9.40;92.40
57843;DHT22;43673;51.058;3.734;2023-03-01T09:08:48;8.90;93.00
57843;DHT22;43673;51.058;3.734;2023-03-01T09:11:19;9.10;94.30
57843;DHT22;43673;51.058;3.734;2023-03-01T09:13:47;9.30;92.80
57843;DHT22;43673;51.058;3.734;2023-03-01T09:16:15;9.10;93.00
57843;DHT22;43673;51.058;3.734;2023-03-01T09:18:43;8.80;92.90
57843;DHT22;43673;51.058;3.734;2023-03-01T09:21:14;8.50;93.90
57843;DHT22;43673;51.058;3.734;2023-03-01T09:23:43;8.60;93.50
57843;DHT22;43673;51.058;3.734;2023-03-01T09:26:11;8.50;93.50
57843;DHT22;43673;51.058;3.734;2023-03-01T09:28:37;8.50;94.20
57843;DHT22;43673;51.058;3.734;2023-03-01T09:31:04;8.70;93.40
57843;DHT22;43673;51.058;3.734;2023-03-01T09:33:31;8.80;93.80
57843;DHT22;43673;51.058;3.734;2023-03-01T09:36:05;8.90;93.90
57843;DHT22;43673;51.058;3.734;2023-03-01T09:38:33;9.10;93.40
57843;DHT22;43673;51.058;3.734;2023-03-01T09:41:02;9.40;92.30
57843;DHT22;43673;51.058;3.734;2023-03-01T09:43:30;9.70;91.90
57843;DHT22;43673;51.058;3.734;2023-03-01T09:45:59;9.90;91.90
57843;DHT22;43673;51.058;3.734;2023-03-01T09:48:37;10.40;90.30
57843;DHT22;43673;51.058;3.734;2023-03-01T09:51:08;10.30;89.70
57843;DHT22;43673;51.058;3.734;2023-03-01T09:53:38;10.50;89.70
57843;DHT22;43673;51.058;3.734;2023-03-01T09:56:17;10.50;89.00
57843;DHT22;43673;51.058;3.734;2023-03-01T09:58:50;10.50;88.70
57843;DHT22;43673;51.058;3.734;2023-03-01T10:04:26;10.40;88.90
57843;DHT22;43673;51.058;3.734;2023-03-01T10:07:05;10.40;86.60
57843;DHT22;43673;51.058;3.734;2023-03-01T10:09:44;10.20;85.90
57843;DHT22;43673;51.058;3.734;2023-03-01T10:12:18;9.90;88.10
57843;DHT22;43673;51.058;3.734;2023-03-01T10:17:55;9.20;89.20
57843;DHT22;43673;51.058;3.734;2023-03-01T10:20:31;9.40;89.90
57843;DHT22;43673;51.058;3.734;2023-03-01T10:23:10;9.80;86.70
57843;DHT22;43673;51.058;3.734;2023-03-01T10:31:25;10.50;83.90
57843;DHT22;43673;51.058;3.734;2023-03-01T10:33:57;10.50;81.20
57843;DHT22;43673;51.058;3.734;2023-03-01T10:36:24;9.80;82.80
57843;DHT22;43673;51.058;3.734;2023-03-01T10:38:55;10.10;83.10
57843;DHT22;43673;51.058;3.734;2023-03-01T10:41:23;10.20;81.70
57843;DHT22;43673;51.058;3.734;2023-03-01T10:43:53;10.10;82.00
57843;DHT22;43673;51.058;3.734;2023-03-01T10:46:35;10.10;81.70
57843;DHT22;43673;51.058;3.734;2023-03-01T10:49:22;10.10;81.80
57843;DHT22;43673;51.058;3.734;2023-03-01T10:51:50;10.10;79.80
57843;DHT22;43673;51.058;3.734;2023-03-01T10:54:27;10.40;78.80
57843;DHT22;43673;51.058;3.734;2023-03-01T10:56:57;10.30;79.10
57843;DHT22;43673;51.058;3.734;2023-03-01T10:59:28;10.60;79.80
57843;DHT22;43673;51.058;3.734;2023-03-01T11:02:26;11.10;76.30
57843;DHT22;43673;51.058;3.734;2023-03-01T11:05:13;10.70;76.60
57843;DHT22;43673;51.058;3.734;2023-03-01T11:07:52;11.00;76.90
57843;DHT22;43673;51.058;3.734;2023-03-01T11:10:30;11.10;75.30
57843;DHT22;43673;51.058;3.734;2023-03-01T11:13:18;10.90;75.10
57843;DHT22;43673;51.058;3.734;2023-03-01T11:16:10;10.60;75.10
57843;DHT22;43673;51.058;3.734;2023-03-01T11:19:07;10.00;75.40
57843;DHT22;43673;51.058;3.734;2023-03-01T11:24:11;8.90;79.60
57843;DHT22;43673;51.058;3.734;2023-03-01T11:26:42;8.60;81.00
57843;DHT22;43673;51.058;3.734;2023-03-01T11:29:33;8.60;83.20
57843;DHT22;43673;51.058;3.734;2023-03-01T11:32:04;8.40;83.10
57843;DHT22;43673;51.058;3.734;2023-03-01T11:34:53;8.10;85.00
57843;DHT22;43673;51.058;3.734;2023-03-01T11:38:02;7.90;85.70
57843;DHT22;43673;51.058;3.734;2023-03-01T11:40:40;7.70;86.20
57843;DHT22;43673;51.058;3.734;2023-03-01T11:43:18;7.80;87.10
57843;DHT22;43673;51.058;3.734;2023-03-01T11:45:54;8.10;86.90
57843;DHT22;43673;51.058;3.734;2023-03-01T11:51:08;8.50;85.10
57843;DHT22;43673;51.058;3.734;2023-03-01T11:56:27;9.00;82.40
57843;DHT22;43673;51.058;3.734;2023-03-01T11:59:20;9.40;80.00
57843;DHT22;43673;51.058;3.734;2023-03-01T12:07:01;9.70;79.50
57843;DHT22;43673;51.058;3.734;2023-03-01T12:39:09;7.30;87.50
57843;DHT22;43673;51.058;3.734;2023-03-01T12:42:16;7.20;88.80
57843;DHT22;43673;51.058;3.734;2023-03-01T12:50:38;7.50;87.80
57843;DHT22;43673;51.058;3.734;2023-03-01T12:53:04;7.50;87.50
57843;DHT22;43673;51.058;3.734;2023-03-01T12:55:37;7.50;86.50
57843;DHT22;43673;51.058;3.734;2023-03-01T12:58:34;7.50;87.20
57843;DHT22;43673;51.058;3.734;2023-03-01T13:11:57;7.70;87.20
57843;DHT22;43673;51.058;3.734;2023-03-01T13:16:49;7.50;86.60
57843;DHT22;43673;51.058;3.734;2023-03-01T13:22:37;7.70;87.40
57843;DHT22;43673;51.058;3.734;2023-03-01T14:04:00;7.90;88.50
57843;DHT22;43673;51.058;3.734;2023-03-01T14:06:42;7.90;88.50
57843;DHT22;43673;51.058;3.734;2023-03-01T14:27:02;7.80;90.10
57843;DHT22;43673;51.058;3.734;2023-03-01T14:29:35;7.90;90.40
57843;DHT22;43673;51.058;3.734;2023-03-01T14:34:52;7.90;90.50
57843;DHT22;43673;51.058;3.734;2023-03-01T14:37:27;8.00;90.80
57843;DHT22;43673;51.058;3.734;2023-03-01T15:06:19;7.90;90.40
57843;DHT22;43673;51.058;3.734;2023-03-01T15:11:31;7.90;90.80
57843;DHT22;43673;51.058;3.734;2023-03-01T15:21:48;8.00;91.10
57843;DHT22;43673;51.058;3.734;2023-03-01T15:29:32;8.10;90.50
57843;DHT22;43673;51.058;3.734;2023-03-01T15:37:46;7.90;90.30
57843;DHT22;43673;51.058;3.734;2023-03-01T15:40:28;7.80;90.40
57843;DHT22;43673;51.058;3.734;2023-03-01T15:43:08;7.80;90.50
57843;DHT22;43673;51.058;3.734;2023-03-01T15:45:58;7.80;90.60
57843;DHT22;43673;51.058;3.734;2023-03-01T15:48:49;7.70;90.30
57843;DHT22;43673;51.058;3.734;2023-03-01T15:51:27;7.80;91.00
57843;DHT22;43673;51.058;3.734;2023-03-01T15:53:58;7.60;90.70
57843;DHT22;43673;51.058;3.734;2023-03-01T15:59:06;7.60;90.90
57843;DHT22;43673;51.058;3.734;2023-03-01T16:01:36;7.80;91.40
57843;DHT22;43673;51.058;3.734;2023-03-01T16:06:37;7.70;91.50
57843;DHT22;43673;51.058;3.734;2023-03-01T16:16:50;7.70;91.30
57843;DHT22;43673;51.058;3.734;2023-03-01T16:19:16;7.70;91.50
57843;DHT22;43673;51.058;3.734;2023-03-01T16:21:42;7.70;91.40
57843;DHT22;43673;51.058;3.734;2023-03-01T16:24:09;7.60;91.50
57843;DHT22;43673;51.058;3.734;2023-03-01T16:45:12;7.40;92.60
57843;DHT22;43673;51.058;3.734;2023-03-01T17:06:25;7.20;92.70
57843;DHT22;43673;51.058;3.734;2023-03-01T17:09:34;7.10;92.80
57843;DHT22;43673;51.058;3.734;2023-03-01T17:12:17;7.10;92.80
57843;DHT22;43673;51.058;3.734;2023-03-01T17:30:12;6.80;91.90
57843;DHT22;43673;51.058;3.734;2023-03-01T17:32:39;6.70;91.90
57843;DHT22;43673;51.058;3.734;2023-03-01T17:35:06;6.70;92.20
57843;DHT22;43673;51.058;3.734;2023-03-01T17:37:32;6.60;92.40
57843;DHT22;43673;51.058;3.734;2023-03-01T17:39:58;6.60;92.60
57843;DHT22;43673;51.058;3.734;2023-03-01T17:42:24;6.40;92.70
57843;DHT22;43673;51.058;3.734;2023-03-01T17:44:50;6.50;92.80
57843;DHT22;43673;51.058;3.734;2023-03-01T17:47:19;6.50;93.10
57843;DHT22;43673;51.058;3.734;2023-03-01T17:49:44;6.40;93.20
57843;DHT22;43673;51.058;3.734;2023-03-01T17:52:10;6.40;93.40
57843;DHT22;43673;51.058;3.734;2023-03-01T17:54:36;6.30;93.40
57843;DHT22;43673;51.058;3.734;2023-03-01T17:57:01;6.20;93.60
57843;DHT22;43673;51.058;3.734;2023-03-01T17:59:27;6.30;93.70
57843;DHT22;43673;51.058;3.734;2023-03-01T18:01:56;6.40;93.80
57843;DHT22;43673;51.058;3.734;2023-03-01T18:04:23;6.20;93.90
57843;DHT22;43673;51.058;3.734;2023-03-01T18:06:48;6.10;94.00
57843;DHT22;43673;51.058;3.734;2023-03-01T18:09:17;6.10;94.30
57843;DHT22;43673;51.058;3.734;2023-03-01T18:11:43;5.90;94.40
57843;DHT22;43673;51.058;3.734;2023-03-01T18:14:09;6.00;94.60
57843;DHT22;43673;51.058;3.734;2023-03-01T18:16:35;6.20;94.60
57843;DHT22;43673;51.058;3.734;2023-03-01T18:19:00;5.90;94.60
57843;DHT22;43673;51.058;3.734;2023-03-01T18:21:27;5.90;94.60
57843;DHT22;43673;51.058;3.734;2023-03-01T18:23:53;5.80;94.70
57843;DHT22;43673;51.058;3.734;2023-03-01T18:26:20;5.80;94.80
57843;DHT22;43673;51.058;3.734;2023-03-01T18:28:48;5.70;94.90
57843;DHT22;43673;51.058;3.734;2023-03-01T18:31:16;5.70;95.10
57843;DHT22;43673;51.058;3.734;2023-03-01T18:33:43;5.70;95.10
57843;DHT22;43673;51.058;3.734;2023-03-01T18:36:36;5.70;95.10
57843;DHT22;43673;51.058;3.734;2023-03-01T18:39:04;5.60;95.20
57843;DHT22;43673;51.058;3.734;2023-03-01T18:41:30;5.60;95.20
57843;DHT22;43673;51.058;3.734;2023-03-01T18:43:57;5.50;95.50
57843;DHT22;43673;51.058;3.734;2023-03-01T18:46:24;5.50;95.60
57843;DHT22;43673;51.058;3.734;2023-03-01T18:51:23;5.50;96.10
57843;DHT22;43673;51.058;3.734;2023-03-01T18:53:49;5.50;96.10
57843;DHT22;43673;51.058;3.734;2023-03-01T18:56:15;5.50;96.10
57843;DHT22;43673;51.058;3.734;2023-03-01T18:58:42;5.40;96.10
57843;DHT22;43673;51.058;3.734;2023-03-01T19:01:17;5.40;96.30
57843;DHT22;43673;51.058;3.734;2023-03-01T19:03:43;5.30;96.40
57843;DHT22;43673;51.058;3.734;2023-03-01T19:06:09;5.30;96.50
57843;DHT22;43673;51.058;3.734;2023-03-01T19:08:35;5.30;96.60
57843;DHT22;43673;51.058;3.734;2023-03-01T19:11:03;5.20;96.80
57843;DHT22;43673;51.058;3.734;2023-03-01T19:13:29;5.20;96.90
57843;DHT22;43673;51.058;3.734;2023-03-01T19:16:07;5.20;97.10
57843;DHT22;43673;51.058;3.734;2023-03-01T19:18:35;5.10;97.10
57843;DHT22;43673;51.058;3.734;2023-03-01T19:21:03;5.10;97.30
57843;DHT22;43673;51.058;3.734;2023-03-01T19:23:29;5.10;97.40
57843;DHT22;43673;51.058;3.734;2023-03-01T19:26:09;5.10;97.40
57843;DHT22;43673;51.058;3.734;2023-03-01T19:28:39;5.10;97.50
57843;DHT22;43673;51.058;3.734;2023-03-01T19:31:09;5.20;97.70
57843;DHT22;43673;51.058;3.734;2023-03-01T19:33:37;5.10;97.70
57843;DHT22;43673;51.058;3.734;2023-03-01T19:36:04;5.00;97.80
57843;DHT22;43673;51.058;3.734;2023-03-01T19:38:30;4.90;97.90
57843;DHT22;43673;51.058;3.734;2023-03-01T19:40:57;5.10;98.20
57843;DHT22;43673;51.058;3.734;2023-03-01T19:43:23;4.90;98.20
57843;DHT22;43673;51.058;3.734;2023-03-01T19:45:51;4.80;98.30
57843;DHT22;43673;51.058;3.734;2023-03-01T19:48:17;4.80;98.50
57843;DHT22;43673;51.058;3.734;2023-03-01T19:50:43;4.80;98.70
57843;DHT22;43673;51.058;3.734;2023-03-01T19:53:10;4.80;98.70
57843;DHT22;43673;51.058;3.734;2023-03-01T19:55:37;4.80;98.90
57843;DHT22;43673;51.058;3.734;2023-03-01T19:58:04;4.70;99.10
57843;DHT22;43673;51.058;3.734;2023-03-01T20:00:31;4.80;99.10
57843;DHT22;43673;51.058;3.734;2023-03-01T20:02:57;4.80;99.20
57843;DHT22;43673;51.058;3.734;2023-03-01T20:05:23;4.80;99.20
57843;DHT22;43673;51.058;3.734;2023-03-01T20:07:48;4.80;99.30
57843;DHT22;43673;51.058;3.734;2023-03-01T20:10:16;4.80;99.20
57843;DHT22;43673;51.058;3.734;2023-03-01T20:12:43;4.80;99.20
57843;DHT22;43673;51.058;3.734;2023-03-01T20:15:09;4.70;99.40
57843;DHT22;43673;51.058;3.734;2023-03-01T20:17:35;4.70;99.50
57843;DHT22;43673;51.058;3.734;2023-03-01T20:20:01;5.00;99.50
57843;DHT22;43673;51.058;3.734;2023-03-01T20:22:26;4.80;99.50
57843;DHT22;43673;51.058;3.734;2023-03-01T20:24:52;4.80;99.40
57843;DHT22;43673;51.058;3.734;2023-03-01T20:27:18;4.80;99.30
57843;DHT22;43673;51.058;3.734;2023-03-01T20:29:44;4.80;99.30
57843;DHT22;43673;51.058;3.734;2023-03-01T20:32:10;4.80;99.40